DAL2191 KATL-KJFK
Flight info
| Callsign | DAL2191 |
|---|---|
| Flight time | N/A |
| Altitude | 39000 |
| Route | PHIIL3 HRTWL Q64 SAWED Q108 SIE CAMRN5 |
| Aircraft | B772/H-V/N |
Departure
| Time | 2026-05-07 05:09 |
|---|---|
| Airport | Hartsfield Jackson Atlanta International Airport (KATL) |
Arrival
| Time | N/A |
|---|---|
| Airport | John F. Kennedy International Airport (KJFK) |
| Time | Latitude | Longitude | Altitude | Speed | Heading |
|---|---|---|---|---|---|
| 2026-05-07 04:24 | 33.64198 | -84.42512 | 1001 ft | 0 kts | 270° |
| 2026-05-07 04:41 | 33.64198 | -84.42511 | 1011 ft | 0 kts | 270° |
| 2026-05-07 04:57 | 33.64198 | -84.42510 | 1011 ft | 0 kts | 270° |
| 2026-05-07 04:59 | 33.64198 | -84.42501 | 1011 ft | 4 kts | 270° |
| 2026-05-07 04:59 | 33.64199 | -84.42469 | 1011 ft | 4 kts | 262° |
| 2026-05-07 04:59 | 33.64206 | -84.42440 | 1011 ft | 4 kts | 228° |
| 2026-05-07 04:59 | 33.64225 | -84.42428 | 1011 ft | 4 kts | 162° |
| 2026-05-07 05:00 | 33.64237 | -84.42436 | 1011 ft | 1 kts | 136° |
| 2026-05-07 05:00 | 33.64239 | -84.42437 | 1011 ft | 3 kts | 136° |
| 2026-05-07 05:03 | 33.64239 | -84.42438 | 1011 ft | 0 kts | 136° |
| 2026-05-07 05:04 | 33.64234 | -84.42432 | 1011 ft | 6 kts | 136° |
| 2026-05-07 05:04 | 33.64198 | -84.42348 | 1011 ft | 13 kts | 95° |
| 2026-05-07 05:05 | 33.64172 | -84.42251 | 1011 ft | 13 kts | 144° |
| 2026-05-07 05:05 | 33.64076 | -84.42240 | 1011 ft | 20 kts | 181° |
| 2026-05-07 05:05 | 33.63907 | -84.42241 | 1011 ft | 25 kts | 179° |
| 2026-05-07 05:05 | 33.63733 | -84.42233 | 1011 ft | 25 kts | 179° |
| 2026-05-07 05:06 | 33.63654 | -84.42122 | 1011 ft | 20 kts | 88° |
| 2026-05-07 05:06 | 33.63656 | -84.41956 | 1011 ft | 20 kts | 89° |
| 2026-05-07 05:06 | 33.63656 | -84.41789 | 1011 ft | 20 kts | 91° |
| 2026-05-07 05:06 | 33.63654 | -84.41622 | 1010 ft | 20 kts | 91° |
| 2026-05-07 05:07 | 33.63656 | -84.41455 | 1010 ft | 20 kts | 90° |
| 2026-05-07 05:07 | 33.63655 | -84.41252 | 1010 ft | 32 kts | 89° |
| 2026-05-07 05:07 | 33.63656 | -84.41028 | 1011 ft | 25 kts | 90° |
| 2026-05-07 05:07 | 33.63656 | -84.40832 | 1011 ft | 22 kts | 90° |
| 2026-05-07 05:08 | 33.63559 | -84.40741 | 1012 ft | 20 kts | 179° |
| 2026-05-07 05:08 | 33.63471 | -84.40801 | 1011 ft | 8 kts | 265° |
| 2026-05-07 05:08 | 33.63471 | -84.40809 | 1011 ft | 0 kts | 268° |
| 2026-05-07 05:09 | 33.63470 | -84.40833 | 1012 ft | 15 kts | 268° |
| 2026-05-07 05:09 | 33.63469 | -84.41349 | 1011 ft | 111 kts | 269° |
| 2026-05-07 05:09 | 33.63475 | -84.42610 | 1177 ft | 179 kts | 268° |
| 2026-05-07 05:09 | 33.63497 | -84.44205 | 2104 ft | 202 kts | 265° |
| 2026-05-07 05:10 | 33.63483 | -84.45964 | 2782 ft | 216 kts | 262° |
| 2026-05-07 05:10 | 33.63226 | -84.47714 | 3588 ft | 212 kts | 243° |
| 2026-05-07 05:10 | 33.62583 | -84.49313 | 4389 ft | 218 kts | 242° |
| 2026-05-07 05:10 | 33.61902 | -84.50962 | 5283 ft | 222 kts | 243° |
| 2026-05-07 05:11 | 33.61231 | -84.52616 | 6294 ft | 223 kts | 243° |
| 2026-05-07 05:11 | 33.60520 | -84.54336 | 6916 ft | 242 kts | 243° |
| 2026-05-07 05:11 | 33.59692 | -84.56236 | 7109 ft | 269 kts | 237° |
| 2026-05-07 05:11 | 33.58247 | -84.57851 | 7273 ft | 304 kts | 210° |
| 2026-05-07 05:12 | 33.56103 | -84.58473 | 7732 ft | 333 kts | 187° |
| 2026-05-07 05:12 | 33.53782 | -84.58373 | 8438 ft | 337 kts | 185° |
| 2026-05-07 05:12 | 33.51434 | -84.58335 | 9302 ft | 338 kts | 183° |
| 2026-05-07 05:12 | 33.49089 | -84.57591 | 9928 ft | 367 kts | 158° |
| 2026-05-07 05:13 | 33.47084 | -84.55579 | 10797 ft | 390 kts | 134° |
| 2026-05-07 05:13 | 33.45812 | -84.52648 | 11726 ft | 407 kts | 109° |
| 2026-05-07 05:13 | 33.45488 | -84.49254 | 12491 ft | 415 kts | 91° |
| 2026-05-07 05:13 | 33.45545 | -84.45795 | 13126 ft | 427 kts | 90° |
| 2026-05-07 05:14 | 33.45602 | -84.42214 | 13958 ft | 433 kts | 90° |
| 2026-05-07 05:14 | 33.45614 | -84.38599 | 14776 ft | 436 kts | 91° |
| 2026-05-07 05:14 | 33.45601 | -84.34949 | 15617 ft | 439 kts | 90° |
| 2026-05-07 05:14 | 33.45906 | -84.31319 | 16245 ft | 444 kts | 76° |
| 2026-05-07 05:15 | 33.46795 | -84.27751 | 16879 ft | 450 kts | 70° |
| 2026-05-07 05:15 | 33.47803 | -84.24171 | 17560 ft | 456 kts | 70° |
| 2026-05-07 05:15 | 33.48811 | -84.20564 | 18335 ft | 459 kts | 70° |
| 2026-05-07 05:15 | 33.49794 | -84.16918 | 18992 ft | 461 kts | 71° |
| 2026-05-07 05:16 | 33.50756 | -84.13233 | 19586 ft | 465 kts | 71° |
| 2026-05-07 05:16 | 33.51706 | -84.09504 | 20138 ft | 470 kts | 72° |
| 2026-05-07 05:16 | 33.52652 | -84.05743 | 20683 ft | 474 kts | 72° |
| 2026-05-07 05:16 | 33.53604 | -84.01943 | 21263 ft | 478 kts | 72° |
| 2026-05-07 05:17 | 33.54568 | -83.98092 | 21709 ft | 487 kts | 71° |
| 2026-05-07 05:17 | 33.55549 | -83.94175 | 22047 ft | 496 kts | 72° |
| 2026-05-07 05:17 | 33.56546 | -83.90195 | 22555 ft | 499 kts | 72° |
| 2026-05-07 05:17 | 33.57542 | -83.86214 | 23273 ft | 498 kts | 72° |
| 2026-05-07 05:18 | 33.58551 | -83.82231 | 23796 ft | 501 kts | 70° |
| 2026-05-07 05:18 | 33.59829 | -83.78323 | 24157 ft | 505 kts | 63° |
| 2026-05-07 05:18 | 33.61366 | -83.74523 | 24540 ft | 509 kts | 61° |
| 2026-05-07 05:18 | 33.62954 | -83.70713 | 24982 ft | 512 kts | 62° |
| 2026-05-07 05:19 | 33.64481 | -83.66837 | 25441 ft | 516 kts | 63° |
| 2026-05-07 05:19 | 33.65914 | -83.62880 | 25872 ft | 519 kts | 69° |
| 2026-05-07 05:19 | 33.66908 | -83.58688 | 26231 ft | 525 kts | 77° |
| 2026-05-07 05:19 | 33.67643 | -83.54378 | 26640 ft | 530 kts | 78° |
| 2026-05-07 05:20 | 33.68337 | -83.50020 | 27126 ft | 532 kts | 78° |
| 2026-05-07 05:20 | 33.69055 | -83.45665 | 27612 ft | 534 kts | 77° |
| 2026-05-07 05:20 | 33.69822 | -83.41286 | 28042 ft | 537 kts | 77° |
| 2026-05-07 05:20 | 33.70628 | -83.36889 | 28427 ft | 542 kts | 76° |
| 2026-05-07 05:21 | 33.71459 | -83.32454 | 28815 ft | 546 kts | 76° |
| 2026-05-07 05:21 | 33.73134 | -83.23504 | 29594 ft | 553 kts | 76° |
| 2026-05-07 05:21 | 33.73970 | -83.18979 | 29971 ft | 557 kts | 77° |
| 2026-05-07 05:22 | 33.74899 | -83.14454 | 30288 ft | 558 kts | 70° |
| 2026-05-07 05:22 | 33.76508 | -83.10263 | 30586 ft | 552 kts | 55° |
| 2026-05-07 05:22 | 33.78602 | -83.06383 | 30810 ft | 555 kts | 52° |
| 2026-05-07 05:22 | 33.80761 | -83.02520 | 31070 ft | 558 kts | 52° |
| 2026-05-07 05:23 | 33.82905 | -82.98624 | 31369 ft | 560 kts | 53° |
| 2026-05-07 05:23 | 33.85015 | -82.94673 | 31661 ft | 562 kts | 54° |
| 2026-05-07 05:23 | 33.87092 | -82.90681 | 32034 ft | 562 kts | 54° |
| 2026-05-07 05:23 | 33.89141 | -82.86683 | 32452 ft | 560 kts | 54° |
| 2026-05-07 05:24 | 33.91173 | -82.82698 | 32880 ft | 559 kts | 54° |
| 2026-05-07 05:24 | 33.93208 | -82.78716 | 33328 ft | 557 kts | 54° |
| 2026-05-07 05:24 | 33.95237 | -82.74754 | 33789 ft | 555 kts | 54° |
| 2026-05-07 05:24 | 33.97263 | -82.70806 | 34213 ft | 553 kts | 54° |
| 2026-05-07 05:25 | 33.99280 | -82.66870 | 34567 ft | 553 kts | 54° |
| 2026-05-07 05:25 | 34.01288 | -82.62917 | 34925 ft | 553 kts | 54° |
| 2026-05-07 05:25 | 34.03283 | -82.58962 | 35255 ft | 553 kts | 54° |
| 2026-05-07 05:25 | 34.05280 | -82.54988 | 35568 ft | 553 kts | 54° |
| 2026-05-07 05:26 | 34.07268 | -82.51029 | 35881 ft | 553 kts | 54° |
| 2026-05-07 05:26 | 34.09261 | -82.47058 | 36208 ft | 553 kts | 54° |
| 2026-05-07 05:26 | 34.11250 | -82.43096 | 36531 ft | 553 kts | 54° |
| 2026-05-07 05:26 | 34.13243 | -82.39123 | 36838 ft | 553 kts | 53° |
| 2026-05-07 05:27 | 34.15228 | -82.35164 | 37137 ft | 553 kts | 53° |
| 2026-05-07 05:27 | 34.17222 | -82.31184 | 37431 ft | 553 kts | 53° |
| 2026-05-07 05:27 | 34.19207 | -82.27215 | 37729 ft | 553 kts | 53° |
| 2026-05-07 05:27 | 34.21193 | -82.23237 | 38022 ft | 553 kts | 53° |
| 2026-05-07 05:28 | 34.23175 | -82.19266 | 38333 ft | 553 kts | 53° |
| 2026-05-07 05:28 | 34.27191 | -82.11237 | 38475 ft | 561 kts | 53° |
| 2026-05-07 05:28 | 34.29224 | -82.07202 | 38738 ft | 561 kts | 53° |
| 2026-05-07 05:29 | 34.31254 | -82.03180 | 38893 ft | 562 kts | 53° |
| 2026-05-07 05:29 | 34.35349 | -81.95060 | 38969 ft | 567 kts | 53° |
| 2026-05-07 05:30 | 34.39416 | -81.86952 | 38968 ft | 559 kts | 53° |
| 2026-05-07 05:30 | 34.43430 | -81.78924 | 38982 ft | 558 kts | 53° |
| 2026-05-07 05:31 | 34.47452 | -81.70872 | 38971 ft | 562 kts | 53° |
| 2026-05-07 05:31 | 34.51532 | -81.62695 | 38993 ft | 571 kts | 53° |
| 2026-05-07 05:32 | 34.55617 | -81.54474 | 38979 ft | 573 kts | 53° |
| 2026-05-07 05:32 | 34.59720 | -81.46187 | 38976 ft | 573 kts | 53° |
| 2026-05-07 05:33 | 34.63811 | -81.37911 | 38971 ft | 571 kts | 53° |
| 2026-05-07 05:33 | 34.67891 | -81.29643 | 38974 ft | 570 kts | 53° |
| 2026-05-07 05:34 | 34.71965 | -81.21370 | 38978 ft | 571 kts | 53° |
| 2026-05-07 05:34 | 34.76044 | -81.13067 | 38978 ft | 572 kts | 53° |
| 2026-05-07 05:35 | 34.80069 | -81.04693 | 38980 ft | 576 kts | 57° |
| 2026-05-07 05:35 | 34.83463 | -80.95798 | 38983 ft | 581 kts | 62° |
| 2026-05-07 05:36 | 34.86709 | -80.86762 | 38981 ft | 583 kts | 61° |
| 2026-05-07 05:36 | 34.89986 | -80.77721 | 38993 ft | 584 kts | 61° |
| 2026-05-07 05:37 | 34.93302 | -80.68681 | 38982 ft | 585 kts | 60° |
| 2026-05-07 05:37 | 34.96627 | -80.59622 | 38983 ft | 586 kts | 61° |
| 2026-05-07 05:38 | 34.99950 | -80.50525 | 38993 ft | 587 kts | 60° |
| 2026-05-07 05:38 | 35.03263 | -80.41421 | 38985 ft | 588 kts | 60° |
| 2026-05-07 05:39 | 35.06572 | -80.32301 | 38970 ft | 588 kts | 60° |
| 2026-05-07 05:39 | 35.09854 | -80.23227 | 38969 ft | 588 kts | 60° |
| 2026-05-07 05:40 | 35.13155 | -80.14079 | 38968 ft | 589 kts | 60° |
| 2026-05-07 05:40 | 35.16452 | -80.04913 | 38982 ft | 590 kts | 60° |
| 2026-05-07 05:41 | 35.19752 | -79.95715 | 38980 ft | 591 kts | 60° |
| 2026-05-07 05:41 | 35.22515 | -79.87992 | 38975 ft | 591 kts | 60° |
| 2026-05-07 05:42 | 35.25783 | -79.78830 | 38941 ft | 592 kts | 60° |
| 2026-05-07 05:42 | 35.29059 | -79.69614 | 38943 ft | 590 kts | 60° |
| 2026-05-07 05:43 | 35.32325 | -79.60401 | 38984 ft | 590 kts | 60° |
| 2026-05-07 05:43 | 35.35598 | -79.51148 | 38994 ft | 593 kts | 60° |
| 2026-05-07 05:44 | 35.38874 | -79.41856 | 38990 ft | 595 kts | 59° |
| 2026-05-07 05:44 | 35.42151 | -79.32529 | 38988 ft | 596 kts | 59° |
| 2026-05-07 05:45 | 35.45424 | -79.23181 | 38973 ft | 596 kts | 59° |
| 2026-05-07 05:45 | 35.48683 | -79.13847 | 38977 ft | 595 kts | 59° |
| 2026-05-07 05:46 | 35.51936 | -79.04503 | 38988 ft | 594 kts | 59° |
| 2026-05-07 05:46 | 35.55171 | -78.95185 | 38978 ft | 592 kts | 59° |
| 2026-05-07 05:47 | 35.58388 | -78.85888 | 38960 ft | 591 kts | 59° |
| 2026-05-07 05:47 | 35.61598 | -78.76594 | 38950 ft | 589 kts | 59° |
| 2026-05-07 05:48 | 35.64802 | -78.67347 | 38950 ft | 587 kts | 58° |
| 2026-05-07 05:48 | 35.67997 | -78.58118 | 38951 ft | 586 kts | 59° |
| 2026-05-07 05:49 | 35.71178 | -78.48890 | 38946 ft | 586 kts | 59° |
| 2026-05-07 05:49 | 35.74350 | -78.39652 | 38947 ft | 586 kts | 59° |
| 2026-05-07 05:50 | 35.77509 | -78.30383 | 38950 ft | 588 kts | 59° |
| 2026-05-07 05:50 | 35.80667 | -78.21073 | 38964 ft | 590 kts | 59° |
| 2026-05-07 05:51 | 35.83831 | -78.11724 | 38973 ft | 592 kts | 59° |
| 2026-05-07 05:51 | 35.86996 | -78.02346 | 38946 ft | 593 kts | 59° |
| 2026-05-07 05:52 | 35.90158 | -77.92943 | 38946 ft | 594 kts | 60° |
| 2026-05-07 05:52 | 35.93313 | -77.83532 | 38931 ft | 594 kts | 60° |
| 2026-05-07 05:53 | 35.96671 | -77.74367 | 38952 ft | 583 kts | 51° |
| 2026-05-07 05:53 | 36.01050 | -77.66049 | 38970 ft | 567 kts | 41° |
| 2026-05-07 05:53 | 36.03529 | -77.62324 | 38965 ft | 555 kts | 35° |
| 2026-05-07 05:54 | 36.06112 | -77.58883 | 38960 ft | 553 kts | 34° |
| 2026-05-07 05:54 | 36.11376 | -77.51980 | 38975 ft | 552 kts | 34° |
| 2026-05-07 05:55 | 36.16609 | -77.45013 | 38943 ft | 553 kts | 35° |
| 2026-05-07 05:55 | 36.21816 | -77.37981 | 38959 ft | 555 kts | 36° |
| 2026-05-07 05:56 | 36.27031 | -77.30921 | 38969 ft | 556 kts | 36° |
| 2026-05-07 05:56 | 36.32298 | -77.23914 | 38995 ft | 551 kts | 31° |
| 2026-05-07 05:57 | 36.37930 | -77.17535 | 38973 ft | 547 kts | 28° |
| 2026-05-07 05:57 | 36.43618 | -77.11286 | 38964 ft | 547 kts | 28° |
| 2026-05-07 05:58 | 36.49299 | -77.04983 | 38959 ft | 547 kts | 29° |
| 2026-05-07 05:58 | 36.54957 | -76.98632 | 38953 ft | 548 kts | 29° |
| 2026-05-07 05:59 | 36.60609 | -76.92256 | 38967 ft | 549 kts | 29° |
| 2026-05-07 05:59 | 36.66261 | -76.85870 | 38955 ft | 548 kts | 29° |
| 2026-05-07 06:00 | 36.71867 | -76.79528 | 38953 ft | 548 kts | 29° |
| 2026-05-07 06:00 | 36.77503 | -76.73141 | 38959 ft | 548 kts | 29° |
| 2026-05-07 06:01 | 36.83141 | -76.66741 | 38965 ft | 548 kts | 29° |
| 2026-05-07 06:01 | 36.88772 | -76.60333 | 38949 ft | 548 kts | 29° |
| 2026-05-07 06:02 | 36.94413 | -76.53900 | 38941 ft | 549 kts | 29° |
| 2026-05-07 06:02 | 37.00054 | -76.47456 | 38922 ft | 550 kts | 29° |
| 2026-05-07 06:03 | 37.05708 | -76.40980 | 38920 ft | 551 kts | 29° |
| 2026-05-07 06:03 | 37.11356 | -76.34497 | 38916 ft | 551 kts | 30° |
| 2026-05-07 06:04 | 37.17005 | -76.27999 | 38934 ft | 551 kts | 30° |
| 2026-05-07 06:04 | 37.22659 | -76.21484 | 38916 ft | 552 kts | 30° |
| 2026-05-07 06:05 | 37.28313 | -76.14952 | 38898 ft | 553 kts | 30° |
| 2026-05-07 06:05 | 37.33965 | -76.08408 | 38907 ft | 552 kts | 30° |
| 2026-05-07 06:06 | 37.39618 | -76.01850 | 38911 ft | 553 kts | 30° |
| 2026-05-07 06:06 | 37.45254 | -75.95298 | 38903 ft | 552 kts | 30° |
| 2026-05-07 06:07 | 37.50903 | -75.88729 | 38905 ft | 550 kts | 28° |
| 2026-05-07 06:07 | 37.56858 | -75.83013 | 38903 ft | 525 kts | 16° |
| 2026-05-07 06:08 | 37.63128 | -75.78397 | 38903 ft | 521 kts | 15° |
| 2026-05-07 06:08 | 37.69396 | -75.73782 | 38910 ft | 522 kts | 16° |
| 2026-05-07 06:09 | 37.75628 | -75.69090 | 38906 ft | 522 kts | 16° |
| 2026-05-07 06:09 | 37.81638 | -75.64540 | 38898 ft | 522 kts | 16° |
| 2026-05-07 06:10 | 37.86605 | -75.60639 | 38874 ft | 528 kts | 19° |
| 2026-05-07 06:10 | 37.91315 | -75.56556 | 38895 ft | 531 kts | 21° |
| 2026-05-07 06:11 | 37.97392 | -75.51182 | 38877 ft | 531 kts | 20° |
| 2026-05-07 06:11 | 38.03475 | -75.45886 | 38881 ft | 532 kts | 20° |
| 2026-05-07 06:12 | 38.07328 | -75.42576 | 38879 ft | 530 kts | 19° |
| 2026-05-07 06:12 | 38.11233 | -75.39394 | 38899 ft | 527 kts | 18° |
| 2026-05-07 06:13 | 38.17422 | -75.34404 | 38888 ft | 529 kts | 18° |
| 2026-05-07 06:13 | 38.23714 | -75.29781 | 38882 ft | 508 kts | 8° |
| 2026-05-07 06:13 | 38.26969 | -75.28178 | 38889 ft | 494 kts | 2° |
| 2026-05-07 06:14 | 38.29751 | -75.27122 | 38884 ft | 484 kts | 358° |
| 2026-05-07 06:14 | 38.33014 | -75.26323 | 38884 ft | 470 kts | 352° |
| 2026-05-07 06:14 | 38.36272 | -75.25703 | 38877 ft | 469 kts | 352° |
| 2026-05-07 06:15 | 38.42706 | -75.24460 | 38913 ft | 471 kts | 352° |
| 2026-05-07 06:15 | 38.49200 | -75.23115 | 38882 ft | 473 kts | 353° |
| 2026-05-07 06:15 | 38.52461 | -75.22424 | 38635 ft | 478 kts | 353° |
| 2026-05-07 06:16 | 38.55748 | -75.21719 | 38218 ft | 478 kts | 353° |
| 2026-05-07 06:16 | 38.58834 | -75.21052 | 37836 ft | 477 kts | 353° |
| 2026-05-07 06:16 | 38.59827 | -75.20839 | 37732 ft | 478 kts | 353° |
| 2026-05-07 06:16 | 38.62120 | -75.20350 | 37458 ft | 479 kts | 353° |
| 2026-05-07 06:17 | 38.65256 | -75.19676 | 37120 ft | 484 kts | 355° |
| 2026-05-07 06:17 | 38.67461 | -75.19028 | 36844 ft | 498 kts | 1° |
| 2026-05-07 06:17 | 38.70206 | -75.17784 | 36528 ft | 516 kts | 9° |
| 2026-05-07 06:17 | 38.71427 | -75.17075 | 36392 ft | 524 kts | 12° |
| 2026-05-07 06:18 | 38.74529 | -75.14791 | 36018 ft | 543 kts | 22° |
| 2026-05-07 06:18 | 38.77596 | -75.11872 | 35661 ft | 550 kts | 26° |
| 2026-05-07 06:18 | 38.80563 | -75.08869 | 35330 ft | 553 kts | 27° |
| 2026-05-07 06:18 | 38.83626 | -75.05726 | 34946 ft | 554 kts | 27° |
| 2026-05-07 06:19 | 38.86649 | -75.02655 | 34645 ft | 554 kts | 27° |
| 2026-05-07 06:19 | 38.89690 | -74.99615 | 34301 ft | 555 kts | 26° |
| 2026-05-07 06:19 | 38.92662 | -74.96681 | 33975 ft | 555 kts | 26° |
| 2026-05-07 06:19 | 38.95005 | -74.94382 | 33678 ft | 556 kts | 26° |
| 2026-05-07 06:20 | 38.98057 | -74.91390 | 33290 ft | 557 kts | 26° |
| 2026-05-07 06:20 | 39.01153 | -74.88349 | 32899 ft | 558 kts | 27° |
| 2026-05-07 06:20 | 39.04245 | -74.85303 | 32391 ft | 561 kts | 27° |
| 2026-05-07 06:20 | 39.07337 | -74.82246 | 31813 ft | 558 kts | 27° |
| 2026-05-07 06:21 | 39.10434 | -74.79168 | 31227 ft | 552 kts | 28° |
| 2026-05-07 06:21 | 39.13410 | -74.76073 | 30639 ft | 549 kts | 31° |